ケアンズ の空港の天気 - METARとTAF

ケアンズ国際空港 ( YBCS / CNS ) - オーストラリア クイーンズランド州ケアンズ
飛行場実況気象(Metar)
観測時間10/22 04:30 AEST (10/21 18:30 UTC)
風向・風速静穏 0m/s
視程10km以上
天気現象
なし
気温22℃
湿度83%
気圧1011hPa
METARYBCS 211830Z AUTO 00000KT 9999 // NCD 22/19 Q1011 NOSIG
過去の天気等 Google飛行場航空写真 Wunderground天気予報

過去48時間のMETAR

飛行場予報(TAF)
発表時間: 10/22 03:13 AEST (10/21 17:13 UTC)
予報対象時間: 22日4時 AEST ~ 23日4時 AEST
風向・風速不定 2m/s
視程10km以上
全天の4割程度の雲 雲底高度 760m
22日10時 AEST から
風向・風速北東 5m/s
視程10km以上
少しの雲 雲底高度 1070m
22日19時 AEST から
風向・風速不定 2m/s
視程10km以上
全天の4割程度の雲 雲底高度 760m
TAF YBCS 211713Z 2118/2218 VRB03KT 9999 SCT025
FM220000 04010KT 9999 FEW035
FM220900 VRB03KT 9999 SCT025